createdAt,value
2018-12-01T00:00:22.907Z,10.57
2018-12-01T00:02:51.179Z,14.57
2018-12-01T00:05:19.368Z,19.50
2018-12-01T00:07:47.961Z,16.50
2018-12-01T00:10:16.158Z,12.80
2018-12-01T00:12:45.434Z,14.60
2018-12-01T00:15:17.668Z,10.83
2018-12-01T00:17:45.903Z,12.40
2018-12-01T00:20:16.380Z,11.70
2018-12-01T00:22:44.573Z,11.27
2018-12-01T00:25:12.750Z,16.57
2018-12-01T00:27:40.912Z,12.83
2018-12-01T00:30:11.603Z,11.87
2018-12-01T00:32:40.003Z,9.63
2018-12-01T00:35:09.396Z,14.57
2018-12-01T00:37:37.586Z,10.60
2018-12-01T00:40:12.169Z,12.73
2018-12-01T00:42:40.350Z,14.13
2018-12-01T00:45:10.029Z,16.10
2018-12-01T00:47:38.260Z,11.33
2018-12-01T00:50:09.042Z,15.57
2018-12-01T00:52:37.241Z,9.43
2018-12-01T00:55:07.352Z,15.43
2018-12-01T00:57:35.576Z,12.37
2018-12-01T01:00:05.542Z,12.30
2018-12-01T01:02:34.065Z,12.00
2018-12-01T01:05:02.270Z,18.33
2018-12-01T01:07:30.482Z,12.97
2018-12-01T01:09:58.653Z,12.87
2018-12-01T01:12:26.951Z,14.27
2018-12-01T01:14:55.150Z,15.73
2018-12-01T01:17:23.341Z,14.90
2018-12-01T01:19:51.560Z,13.10
2018-12-01T01:22:19.772Z,14.17
2018-12-01T01:24:48.109Z,20.97
2018-12-01T01:27:16.268Z,9.97
2018-12-01T01:29:44.417Z,12.10
2018-12-01T01:32:12.651Z,9.83
2018-12-01T01:34:40.838Z,17.30
2018-12-01T01:37:09.042Z,10.90
2018-12-01T01:39:37.218Z,11.20
2018-12-01T01:42:05.703Z,20.53
2018-12-01T01:44:33.930Z,11.57
2018-12-01T01:47:02.190Z,15.47
2018-12-01T01:49:30.374Z,12.13
2018-12-01T01:51:58.626Z,13.23
2018-12-01T01:54:26.888Z,14.43
2018-12-01T01:56:55.106Z,13.27
2018-12-01T01:59:23.283Z,15.43
2018-12-01T02:01:51.521Z,8.30
2018-12-01T02:04:19.748Z,13.73
2018-12-01T02:06:47.956Z,15.80
2018-12-01T02:09:16.179Z,11.77
2018-12-01T02:11:44.389Z,15.53
2018-12-01T02:14:12.631Z,10.33
2018-12-01T02:16:40.789Z,14.03
2018-12-01T02:19:08.959Z,12.47
2018-12-01T02:21:37.169Z,11.10
2018-12-01T02:24:05.716Z,15.23
2018-12-01T02:26:33.954Z,12.90
2018-12-01T02:29:02.130Z,10.87
2018-12-01T02:31:30.274Z,20.37
2018-12-01T02:33:58.449Z,11.77
2018-12-01T02:36:26.733Z,19.20
2018-12-01T02:38:54.955Z,14.37
2018-12-01T02:41:23.129Z,17.47
2018-12-01T02:44:02.811Z,10.37
2018-12-01T02:46:47.338Z,12.27
2018-12-01T02:49:15.546Z,11.30
2018-12-01T02:51:43.673Z,12.67
2018-12-01T02:54:11.856Z,12.23
2018-12-01T02:56:40.071Z,14.00
2018-12-01T02:59:08.269Z,15.23
2018-12-01T03:01:36.445Z,16.97
2018-12-01T03:04:04.653Z,11.60
2018-12-01T03:06:32.832Z,14.07
2018-12-01T03:09:01.078Z,12.23
2018-12-01T03:11:29.227Z,11.97
2018-12-01T03:13:57.448Z,11.03
2018-12-01T03:16:25.639Z,15.67
2018-12-01T03:18:53.813Z,16.33
2018-12-01T03:21:22.020Z,10.53
2018-12-01T03:23:50.268Z,11.03
2018-12-01T03:26:18.460Z,8.57
2018-12-01T03:28:46.689Z,9.73
2018-12-01T03:31:14.926Z,13.40
2018-12-01T03:33:44.243Z,14.70
2018-12-01T03:36:12.413Z,13.23
2018-12-01T03:38:48.975Z,11.63
2018-12-01T03:41:17.174Z,11.43
2018-12-01T03:43:45.313Z,13.47
2018-12-01T03:46:13.555Z,14.97
2018-12-01T03:48:41.766Z,10.20
2018-12-01T03:51:09.929Z,16.23
2018-12-01T03:53:38.118Z,16.40
2018-12-01T03:56:06.313Z,12.03
2018-12-01T03:58:34.518Z,16.90
2018-12-01T04:01:02.711Z,14.33
2018-12-01T04:03:31.011Z,12.63
2018-12-01T04:05:59.245Z,11.27
2018-12-01T04:08:27.397Z,17.23
2018-12-01T04:10:55.576Z,13.10
2018-12-01T04:13:23.741Z,12.13
2018-12-01T04:15:51.951Z,15.20
2018-12-01T04:18:20.188Z,13.97
2018-12-01T04:20:48.364Z,14.13
2018-12-01T04:23:16.559Z,8.67
2018-12-01T04:25:44.718Z,18.13
2018-12-01T04:28:12.973Z,12.60
2018-12-01T04:30:41.181Z,19.07
2018-12-01T04:33:09.370Z,12.57
2018-12-01T04:35:37.631Z,13.03
2018-12-01T04:38:06.387Z,13.50
2018-12-01T04:40:34.536Z,14.77
2018-12-01T04:43:02.873Z,14.93
2018-12-01T04:45:31.088Z,15.30
2018-12-01T04:47:59.331Z,10.57
2018-12-01T04:50:27.580Z,12.40
2018-12-01T04:55:51.366Z,8.50
2018-12-01T06:44:18.629Z,13.07
2018-12-01T06:49:32.237Z,10.97
2018-12-01T06:52:00.800Z,12.07
2018-12-01T06:54:29.285Z,12.93
2018-12-01T06:56:58.128Z,13.97
2018-12-01T06:59:26.990Z,12.43
2018-12-01T07:01:55.453Z,12.07
2018-12-01T07:04:23.859Z,15.63
2018-12-01T07:06:52.301Z,11.83
2018-12-01T07:09:20.728Z,19.57
2018-12-01T07:11:49.249Z,29.97
2018-12-01T07:14:17.733Z,58.83
2018-12-01T07:16:46.317Z,36.50
2018-12-01T07:19:16.187Z,26.60
2018-12-01T07:21:44.683Z,23.90
2018-12-01T07:24:13.067Z,18.73
2018-12-01T07:26:41.452Z,24.27
2018-12-01T07:29:09.997Z,49.07
2018-12-01T07:31:39.317Z,37.37
2018-12-01T07:34:07.682Z,18.63
2018-12-01T07:36:36.345Z,24.00
2018-12-01T07:39:07.750Z,21.37
2018-12-01T07:41:36.273Z,24.80
2018-12-01T07:44:05.058Z,22.20
2018-12-01T07:46:33.781Z,21.90
2018-12-01T07:49:02.185Z,17.33
2018-12-01T07:51:30.629Z,15.30
2018-12-01T07:53:59.277Z,12.03
2018-12-01T07:59:00.562Z,14.90
2018-12-01T08:01:29.000Z,10.13
2018-12-01T08:03:57.531Z,14.93
2018-12-01T08:06:26.112Z,14.63
2018-12-01T08:08:54.916Z,14.03
2018-12-01T08:11:23.338Z,15.37
2018-12-01T08:13:51.763Z,13.37
2018-12-01T08:16:20.348Z,14.70
2018-12-01T08:18:48.795Z,14.20
2018-12-01T08:21:17.274Z,18.43
2018-12-01T08:23:45.844Z,13.47
2018-12-01T08:26:14.221Z,10.23
2018-12-01T08:28:42.727Z,14.70
2018-12-01T08:31:11.090Z,45.87
2018-12-01T08:33:39.533Z,31.57
2018-12-01T08:36:07.996Z,27.57
2018-12-01T08:38:36.479Z,32.57
2018-12-01T08:41:05.724Z,23.33
2018-12-01T08:43:34.176Z,16.77
2018-12-01T08:46:02.593Z,20.40
2018-12-01T08:48:30.994Z,64.30
2018-12-01T08:50:59.378Z,81.93
2018-12-01T08:53:27.896Z,40.57
2018-12-01T08:55:56.307Z,40.97
2018-12-01T08:58:24.771Z,51.20
2018-12-01T09:00:53.236Z,33.80
2018-12-01T09:03:24.069Z,26.23
2018-12-01T09:05:53.163Z,25.17
2018-12-01T09:08:21.664Z,21.13
2018-12-01T09:10:50.048Z,23.00
2018-12-01T09:13:18.552Z,19.80
2018-12-01T09:15:47.017Z,20.37
2018-12-01T09:18:15.541Z,24.23
2018-12-01T09:20:44.024Z,16.57
2018-12-01T09:23:12.456Z,16.60
2018-12-01T09:25:40.807Z,32.07
2018-12-01T09:28:09.936Z,44.37
2018-12-01T09:30:40.420Z,24.37
2018-12-01T09:33:08.962Z,19.00
2018-12-01T09:35:37.527Z,23.43
2018-12-01T09:38:06.169Z,19.67
2018-12-01T09:40:36.436Z,16.43
2018-12-01T09:43:05.502Z,16.60
2018-12-01T09:45:34.243Z,16.77
2018-12-01T09:48:08.794Z,12.53
2018-12-01T09:50:39.648Z,17.83
2018-12-01T09:53:19.652Z,12.30
2018-12-01T09:55:48.636Z,13.37
2018-12-01T09:58:20.822Z,16.60
2018-12-01T10:00:50.467Z,16.80
2018-12-01T10:03:18.950Z,18.63
2018-12-01T10:06:31.493Z,24.33
2018-12-01T10:09:02.088Z,28.67
2018-12-01T10:11:33.802Z,12.17
2018-12-01T10:14:02.303Z,13.93
2018-12-01T10:16:31.368Z,11.27
2018-12-01T10:18:59.773Z,8.90
2018-12-01T10:21:28.278Z,12.33
2018-12-01T10:23:56.726Z,8.77
2018-12-01T10:26:25.301Z,10.43
2018-12-01T10:28:58.625Z,13.97
2018-12-01T10:31:27.560Z,7.53
2018-12-01T10:33:55.478Z,8.17
2018-12-01T10:36:23.937Z,9.67
2018-12-01T10:38:53.640Z,5.03
2018-12-01T10:41:22.445Z,6.03
2018-12-01T10:43:51.427Z,5.50
2018-12-01T10:46:22.172Z,8.77
2018-12-01T10:48:51.173Z,4.57
2018-12-01T10:51:19.926Z,5.77
2018-12-01T10:53:48.115Z,7.53
2018-12-01T10:56:16.365Z,5.00
2018-12-01T10:58:44.614Z,3.97
2018-12-01T11:01:38.292Z,5.10
2018-12-01T11:04:11.885Z,4.30
2018-12-01T11:06:40.113Z,5.10
2018-12-01T11:09:08.796Z,4.50
2018-12-01T11:11:37.007Z,5.50
2018-12-01T11:14:05.237Z,3.93
2018-12-01T11:16:33.377Z,4.60
2018-12-01T11:19:01.614Z,4.80
2018-12-01T11:21:29.790Z,3.07
2018-12-01T11:23:58.103Z,3.20
2018-12-01T11:26:26.303Z,4.53
2018-12-01T11:28:54.496Z,4.87
2018-12-01T11:31:22.758Z,6.37
2018-12-01T11:33:51.037Z,5.43
2018-12-01T11:36:19.233Z,7.33
2018-12-01T11:38:47.412Z,3.67
2018-12-01T11:41:15.603Z,2.93
2018-12-01T11:43:43.799Z,3.97
2018-12-01T11:46:12.009Z,6.67
2018-12-01T11:48:40.234Z,5.90
2018-12-01T11:51:08.454Z,5.67
2018-12-01T11:53:36.685Z,5.73
2018-12-01T11:56:05.316Z,3.63
2018-12-01T11:58:33.539Z,3.57
2018-12-01T12:01:01.731Z,4.80
2018-12-01T12:03:29.944Z,5.33
2018-12-01T12:05:58.149Z,5.33
2018-12-01T12:08:27.284Z,5.93
2018-12-01T12:10:55.749Z,4.97
2018-12-01T12:13:25.124Z,5.57
2018-12-01T12:15:53.434Z,4.70
2018-12-01T12:18:22.150Z,7.40
2018-12-01T12:20:50.318Z,2.30
2018-12-01T12:23:18.538Z,2.53
2018-12-01T12:25:46.702Z,4.20
2018-12-01T12:28:14.919Z,4.33
2018-12-01T12:30:43.138Z,4.53
2018-12-01T12:33:11.539Z,4.13
2018-12-01T12:35:39.789Z,4.60
2018-12-01T12:38:08.005Z,6.20
2018-12-01T12:40:36.213Z,2.43
2018-12-01T12:43:04.476Z,4.77
2018-12-01T12:45:32.696Z,2.50
2018-12-01T12:48:00.899Z,5.00
2018-12-01T12:50:29.106Z,4.77
2018-12-01T12:52:57.350Z,4.90
2018-12-01T12:55:26.318Z,2.90
2018-12-01T12:57:54.556Z,3.83
2018-12-01T13:00:26.598Z,1.43
2018-12-01T13:02:59.156Z,4.03
2018-12-01T13:05:30.812Z,4.63
2018-12-01T13:07:58.964Z,4.17
2018-12-01T13:10:27.302Z,3.57
2018-12-01T13:12:55.502Z,6.13
2018-12-01T13:15:23.706Z,4.70
2018-12-01T13:17:51.918Z,3.93
2018-12-01T13:20:21.056Z,3.67
2018-12-01T13:22:55.493Z,4.00
2018-12-01T13:25:23.652Z,4.70
2018-12-01T13:27:54.564Z,3.43
2018-12-01T13:30:24.188Z,6.97
2018-12-01T13:32:52.441Z,13.07
2018-12-01T13:35:21.153Z,6.83
2018-12-01T13:37:49.369Z,5.90
2018-12-01T13:40:17.598Z,3.57
2018-12-01T13:42:46.640Z,3.67
2018-12-01T13:45:16.719Z,3.47
2018-12-01T13:47:47.191Z,6.33
2018-12-01T13:50:16.282Z,6.97
2018-12-01T13:52:52.340Z,5.63
2018-12-01T13:55:20.628Z,9.57
2018-12-01T13:57:48.818Z,6.43
2018-12-01T14:00:19.179Z,2.63
2018-12-01T14:02:47.446Z,6.70
2018-12-01T14:05:15.698Z,4.70
2018-12-01T14:07:43.934Z,3.47
2018-12-01T14:10:15.828Z,18.50
2018-12-01T14:12:45.261Z,7.70
2018-12-01T14:15:15.804Z,8.50
2018-12-01T14:17:44.027Z,4.20
2018-12-01T14:20:13.378Z,9.70
2018-12-01T14:22:41.758Z,7.27
2018-12-01T14:25:11.861Z,2.97
2018-12-01T14:27:41.150Z,13.37
2018-12-01T14:30:12.872Z,5.17
2018-12-01T14:32:41.279Z,4.83
2018-12-01T14:35:15.097Z,4.40
2018-12-01T14:37:43.802Z,7.17
2018-12-01T14:40:13.355Z,4.33
2018-12-01T14:42:42.265Z,6.47
2018-12-01T14:45:13.217Z,2.93
2018-12-01T14:47:41.434Z,3.10
2018-12-01T14:50:11.536Z,6.53
2018-12-01T14:52:40.025Z,8.00
2018-12-01T14:55:11.345Z,2.83
2018-12-01T14:57:39.581Z,5.77
2018-12-01T15:00:14.353Z,2.47
2018-12-01T15:02:44.631Z,2.87
2018-12-01T15:05:13.028Z,3.27
2018-12-01T15:07:41.299Z,5.10
2018-12-01T15:10:11.870Z,5.33
2018-12-01T15:12:40.130Z,5.17
2018-12-01T15:15:09.636Z,3.93
2018-12-01T15:17:37.884Z,3.03
2018-12-01T15:20:09.195Z,3.37
2018-12-01T15:22:38.527Z,2.03
2018-12-01T15:25:09.198Z,4.23
2018-12-01T15:27:37.373Z,4.07
2018-12-01T15:30:26.003Z,4.43
2018-12-01T15:32:59.656Z,6.97
2018-12-01T15:35:27.946Z,5.60
2018-12-01T15:37:56.368Z,8.77
2018-12-01T15:40:24.677Z,4.37
2018-12-01T15:42:52.870Z,6.80
2018-12-01T15:45:21.869Z,6.73
2018-12-01T15:47:50.049Z,7.50
2018-12-01T15:50:20.144Z,7.30
2018-12-01T15:52:53.709Z,6.60
2018-12-01T15:55:22.469Z,4.03
2018-12-01T15:57:50.751Z,7.50
2018-12-01T16:00:19.991Z,5.10
2018-12-01T16:02:48.561Z,7.67
2018-12-01T16:05:17.956Z,10.63
2018-12-01T16:07:46.308Z,5.83
2018-12-01T16:10:15.870Z,6.67
2018-12-01T16:12:44.859Z,7.17
2018-12-01T16:15:27.883Z,8.83
2018-12-01T16:17:56.099Z,4.93
2018-12-01T16:20:24.326Z,7.20
2018-12-01T16:22:52.672Z,9.80
2018-12-01T16:25:22.322Z,5.57
2018-12-01T16:27:50.541Z,5.93
2018-12-01T16:30:21.081Z,6.20
2018-12-01T16:32:50.878Z,8.03
2018-12-01T16:35:19.174Z,7.27
2018-12-01T16:37:47.414Z,7.23
2018-12-01T16:40:34.374Z,7.17
2018-12-01T16:43:04.267Z,8.83
2018-12-01T16:45:32.541Z,7.37
2018-12-01T16:48:00.769Z,4.63
2018-12-01T16:50:28.987Z,6.33
2018-12-01T16:52:57.222Z,10.03
2018-12-01T16:55:25.443Z,6.37
2018-12-01T16:57:53.755Z,6.83
2018-12-01T17:00:21.984Z,7.53
2018-12-01T17:02:54.707Z,6.70
2018-12-01T17:05:24.525Z,5.07
2018-12-01T17:07:53.435Z,6.07
2018-12-01T17:10:22.531Z,8.17
2018-12-01T17:12:52.355Z,5.73
2018-12-01T17:15:21.684Z,6.70
2018-12-01T17:17:50.167Z,6.37
2018-12-01T17:20:19.230Z,7.23
2018-12-01T17:22:56.169Z,5.07
2018-12-01T17:25:24.620Z,3.53
2018-12-01T17:27:54.541Z,5.80
2018-12-01T17:30:24.973Z,7.13
2018-12-01T17:32:53.936Z,8.70
2018-12-01T17:35:23.860Z,5.27
2018-12-01T17:37:53.428Z,5.83
2018-12-01T17:41:00.223Z,9.07
2018-12-01T17:43:39.350Z,6.77
2018-12-01T17:46:07.882Z,5.47
2018-12-01T17:48:36.468Z,5.17
2018-12-01T17:51:04.843Z,7.13
2018-12-01T17:53:33.413Z,8.33
2018-12-01T17:56:01.925Z,7.27
2018-12-01T17:58:30.210Z,5.80
2018-12-01T18:00:58.564Z,5.67
2018-12-01T18:03:26.814Z,6.70
2018-12-01T18:05:55.106Z,6.50
2018-12-01T18:08:23.812Z,6.17
2018-12-01T18:10:53.346Z,6.43
2018-12-01T18:13:22.097Z,7.90
2018-12-01T18:15:50.337Z,6.70
2018-12-01T18:18:18.507Z,5.43
2018-12-01T18:20:46.749Z,11.27
2018-12-01T18:23:16.661Z,5.23
2018-12-01T18:25:49.293Z,10.70
2018-12-01T18:28:24.335Z,5.23
2018-12-01T18:30:52.585Z,5.50
2018-12-01T18:33:23.874Z,10.17
2018-12-01T18:35:52.078Z,9.07
2018-12-01T18:38:20.304Z,5.70
2018-12-01T18:40:48.659Z,5.13
2018-12-01T18:43:16.893Z,10.50
2018-12-01T18:45:46.962Z,5.07
2018-12-01T18:48:15.286Z,9.80
2018-12-01T18:50:43.533Z,10.23
2018-12-01T18:53:11.736Z,4.90
2018-12-01T18:55:44.380Z,4.60
2018-12-01T18:58:12.629Z,8.73
2018-12-01T19:00:42.470Z,7.67
2018-12-01T19:03:10.863Z,13.30
2018-12-01T19:05:39.223Z,7.13
2018-12-01T19:08:07.419Z,9.17
2018-12-01T19:10:35.683Z,9.83
2018-12-01T19:13:03.970Z,8.37
2018-12-01T19:15:32.590Z,7.13
2018-12-01T19:18:00.946Z,10.63
2018-12-01T19:20:29.281Z,8.13
2018-12-01T19:23:04.449Z,6.87
2018-12-01T19:25:32.641Z,8.30
2018-12-01T19:28:01.858Z,7.30
2018-12-01T19:30:30.096Z,6.53
2018-12-01T19:33:01.281Z,4.23
2018-12-01T19:35:29.537Z,5.27
2018-12-01T19:37:57.730Z,7.63
2018-12-01T19:40:28.715Z,5.80
2018-12-01T19:42:56.106Z,7.67
2018-12-01T19:45:24.355Z,4.73
2018-12-01T19:47:52.605Z,3.23
2018-12-01T19:50:24.084Z,5.40
2018-12-01T19:52:51.348Z,7.67
2018-12-01T19:55:21.246Z,6.83
2018-12-01T19:57:49.508Z,7.40
2018-12-01T20:00:19.916Z,6.80
2018-12-01T20:02:48.369Z,6.87
2018-12-01T20:05:18.445Z,7.67
2018-12-01T20:07:47.256Z,4.53
2018-12-01T20:10:32.695Z,3.70
2018-12-01T20:13:07.863Z,7.97
2018-12-01T20:15:40.230Z,3.10
2018-12-01T20:18:13.703Z,6.43
2018-12-01T20:20:42.208Z,3.57
2018-12-01T20:23:10.608Z,4.07
2018-12-01T20:25:39.255Z,5.07
2018-12-01T20:28:08.084Z,4.93
2018-12-01T20:30:36.786Z,4.07
2018-12-01T20:33:05.224Z,5.67
2018-12-01T20:35:42.070Z,6.43
2018-12-01T20:38:15.473Z,5.60
2018-12-01T20:40:44.069Z,3.73
2018-12-01T20:43:12.485Z,5.47
2018-12-01T20:45:40.943Z,6.87
2018-12-01T20:48:09.828Z,4.20
2018-12-01T20:50:38.873Z,4.33
2018-12-01T20:53:08.915Z,4.53
2018-12-01T20:55:37.356Z,6.33
2018-12-01T20:58:08.041Z,5.97
2018-12-01T21:00:36.515Z,6.60
2018-12-01T21:03:05.295Z,4.50
2018-12-01T21:05:34.081Z,5.40
2018-12-01T21:08:02.740Z,3.93
2018-12-01T21:10:33.212Z,6.77
2018-12-01T21:13:03.082Z,4.60
2018-12-01T21:15:31.923Z,3.63
2018-12-01T21:18:01.468Z,3.00
2018-12-01T21:20:30.077Z,5.07
2018-12-01T21:22:58.436Z,3.40
2018-12-01T21:25:27.695Z,2.83
2018-12-01T21:27:57.858Z,4.13
2018-12-01T21:30:27.281Z,5.83
2018-12-01T21:33:04.249Z,6.07
2018-12-01T21:35:32.902Z,4.03
2018-12-01T21:38:01.286Z,4.40
2018-12-01T21:40:29.623Z,3.90
2018-12-01T21:42:57.896Z,4.17
2018-12-01T21:45:26.655Z,4.10
2018-12-01T21:47:55.237Z,4.60
2018-12-01T21:50:23.456Z,4.17
2018-12-01T21:52:53.992Z,4.53
2018-12-01T21:55:23.182Z,6.37
2018-12-01T21:57:52.245Z,3.17
2018-12-01T22:00:24.614Z,3.87
2018-12-01T22:02:55.133Z,3.40
2018-12-01T22:05:25.682Z,2.93
2018-12-01T22:07:53.936Z,2.70
2018-12-01T22:10:22.158Z,2.40
2018-12-01T22:12:50.585Z,2.53
2018-12-01T22:15:19.812Z,3.40
2018-12-01T22:17:50.101Z,5.53
2018-12-01T22:20:21.441Z,3.60
2018-12-01T22:22:50.389Z,3.77
2018-12-01T22:25:18.823Z,4.67
2018-12-01T22:27:47.327Z,4.37
2018-12-01T22:30:20.921Z,2.97
2018-12-01T22:32:51.766Z,7.27
2018-12-01T22:35:21.455Z,2.50
2018-12-01T22:37:50.453Z,2.17
2018-12-01T22:40:22.056Z,3.37
2018-12-01T22:42:52.900Z,3.90
2018-12-01T22:45:21.805Z,3.43
2018-12-01T22:47:50.305Z,4.27
2018-12-01T22:50:19.676Z,5.23
2018-12-01T22:52:48.356Z,2.43
2018-12-01T22:55:18.019Z,3.50
2018-12-01T22:57:54.728Z,2.83
2018-12-01T23:00:35.632Z,4.47
2018-12-01T23:03:04.551Z,2.73
2018-12-01T23:05:33.053Z,1.90
2018-12-01T23:08:01.407Z,2.37
2018-12-01T23:11:54.402Z,3.77
2018-12-01T23:14:22.826Z,1.50
2018-12-01T23:16:51.671Z,2.40
2018-12-01T23:19:20.053Z,2.33
2018-12-01T23:21:48.280Z,2.20
2018-12-01T23:24:16.521Z,2.40
2018-12-01T23:26:44.989Z,3.07
2018-12-01T23:29:13.778Z,3.47
2018-12-01T23:31:42.234Z,2.60
2018-12-01T23:34:10.739Z,2.87
2018-12-01T23:36:39.159Z,2.80
2018-12-01T23:39:07.522Z,3.40
2018-12-01T23:41:35.888Z,2.33
2018-12-01T23:44:04.394Z,3.57
2018-12-01T23:46:32.755Z,1.60
2018-12-01T23:49:01.390Z,2.30
2018-12-01T23:51:29.940Z,2.83
2018-12-01T23:53:58.407Z,2.90
2018-12-01T23:56:26.768Z,1.60
2018-12-01T23:58:55.153Z,2.77
